sensor_id;sensor_type;location;lat;lon;timestamp;P1;durP1;ratioP1;P2;durP2;ratioP2
64932;SDS011;51446;53.850;10.662;2022-12-18T00:01:28;35.47;;;18.27;;
64932;SDS011;51446;53.850;10.662;2022-12-18T00:03:56;30.27;;;17.17;;
64932;SDS011;51446;53.850;10.662;2022-12-18T00:06:25;30.50;;;17.95;;
64932;SDS011;51446;53.850;10.662;2022-12-18T00:08:52;30.88;;;17.70;;
64932;SDS011;51446;53.850;10.662;2022-12-18T00:11:20;30.77;;;18.08;;
64932;SDS011;51446;53.850;10.662;2022-12-18T00:13:47;29.30;;;17.73;;
64932;SDS011;51446;53.850;10.662;2022-12-18T00:16:14;26.30;;;16.63;;
64932;SDS011;51446;53.850;10.662;2022-12-18T00:18:43;30.95;;;17.38;;
64932;SDS011;51446;53.850;10.662;2022-12-18T00:21:09;32.03;;;17.40;;
64932;SDS011;51446;53.850;10.662;2022-12-18T00:23:36;30.52;;;17.45;;
64932;SDS011;51446;53.850;10.662;2022-12-18T00:26:03;30.03;;;16.77;;
64932;SDS011;51446;53.850;10.662;2022-12-18T00:28:33;28.13;;;17.40;;
64932;SDS011;51446;53.850;10.662;2022-12-18T00:33:27;34.83;;;17.30;;
64932;SDS011;51446;53.850;10.662;2022-12-18T00:35:52;26.58;;;17.45;;
64932;SDS011;51446;53.850;10.662;2022-12-18T00:38:17;27.70;;;17.13;;
64932;SDS011;51446;53.850;10.662;2022-12-18T00:40:43;30.27;;;16.60;;
64932;SDS011;51446;53.850;10.662;2022-12-18T00:43:08;31.03;;;17.37;;
64932;SDS011;51446;53.850;10.662;2022-12-18T00:45:33;28.83;;;16.60;;
64932;SDS011;51446;53.850;10.662;2022-12-18T00:47:59;31.37;;;16.23;;
64932;SDS011;51446;53.850;10.662;2022-12-18T00:50:24;27.77;;;17.17;;
64932;SDS011;51446;53.850;10.662;2022-12-18T00:52:51;27.27;;;16.83;;
64932;SDS011;51446;53.850;10.662;2022-12-18T00:55:16;27.63;;;16.60;;
64932;SDS011;51446;53.850;10.662;2022-12-18T00:57:42;27.15;;;16.30;;
64932;SDS011;51446;53.850;10.662;2022-12-18T01:00:09;27.40;;;17.33;;
64932;SDS011;51446;53.850;10.662;2022-12-18T01:02:37;28.27;;;16.75;;
64932;SDS011;51446;53.850;10.662;2022-12-18T01:05:02;28.27;;;16.57;;
64932;SDS011;51446;53.850;10.662;2022-12-18T01:07:28;31.27;;;17.88;;
64932;SDS011;51446;53.850;10.662;2022-12-18T01:09:53;28.23;;;16.83;;
64932;SDS011;51446;53.850;10.662;2022-12-18T01:12:18;35.00;;;17.13;;
64932;SDS011;51446;53.850;10.662;2022-12-18T01:14:43;25.97;;;16.63;;
64932;SDS011;51446;53.850;10.662;2022-12-18T01:17:09;34.17;;;17.70;;
64932;SDS011;51446;53.850;10.662;2022-12-18T01:19:34;30.23;;;16.97;;
64932;SDS011;51446;53.850;10.662;2022-12-18T01:21:59;30.23;;;17.43;;
64932;SDS011;51446;53.850;10.662;2022-12-18T01:24:25;30.97;;;17.10;;
64932;SDS011;51446;53.850;10.662;2022-12-18T01:26:50;28.17;;;17.43;;
64932;SDS011;51446;53.850;10.662;2022-12-18T01:29:15;30.80;;;16.70;;
64932;SDS011;51446;53.850;10.662;2022-12-18T01:31:41;26.87;;;16.90;;
64932;SDS011;51446;53.850;10.662;2022-12-18T01:34:06;35.40;;;18.13;;
64932;SDS011;51446;53.850;10.662;2022-12-18T01:36:32;31.07;;;18.57;;
64932;SDS011;51446;53.850;10.662;2022-12-18T01:39:00;30.35;;;17.85;;
64932;SDS011;51446;53.850;10.662;2022-12-18T01:41:29;32.17;;;17.42;;
64932;SDS011;51446;53.850;10.662;2022-12-18T01:47:15;32.03;;;17.17;;
64932;SDS011;51446;53.850;10.662;2022-12-18T01:49:46;27.73;;;16.27;;
64932;SDS011;51446;53.850;10.662;2022-12-18T01:52:11;25.52;;;15.75;;
64932;SDS011;51446;53.850;10.662;2022-12-18T01:54:37;27.08;;;16.27;;
64932;SDS011;51446;53.850;10.662;2022-12-18T01:57:02;27.83;;;17.20;;
64932;SDS011;51446;53.850;10.662;2022-12-18T01:59:27;33.47;;;17.70;;
64932;SDS011;51446;53.850;10.662;2022-12-18T02:01:56;30.30;;;16.80;;
64932;SDS011;51446;53.850;10.662;2022-12-18T02:04:22;26.40;;;16.30;;
64932;SDS011;51446;53.850;10.662;2022-12-18T02:07:13;27.10;;;16.50;;
64932;SDS011;51446;53.850;10.662;2022-12-18T02:09:48;28.17;;;17.33;;
64932;SDS011;51446;53.850;10.662;2022-12-18T02:12:20;26.13;;;16.23;;
64932;SDS011;51446;53.850;10.662;2022-12-18T02:17:21;31.70;;;18.10;;
64932;SDS011;51446;53.850;10.662;2022-12-18T02:19:54;35.28;;;17.58;;
64932;SDS011;51446;53.850;10.662;2022-12-18T02:28:06;26.48;;;16.52;;
64932;SDS011;51446;53.850;10.662;2022-12-18T02:30:36;32.13;;;17.17;;
64932;SDS011;51446;53.850;10.662;2022-12-18T02:33:05;29.95;;;16.15;;
64932;SDS011;51446;53.850;10.662;2022-12-18T02:35:33;29.17;;;16.87;;
64932;SDS011;51446;53.850;10.662;2022-12-18T02:38:01;29.42;;;16.95;;
64932;SDS011;51446;53.850;10.662;2022-12-18T02:40:28;29.00;;;17.20;;
64932;SDS011;51446;53.850;10.662;2022-12-18T02:42:55;30.50;;;16.50;;
64932;SDS011;51446;53.850;10.662;2022-12-18T02:45:20;30.70;;;17.70;;
64932;SDS011;51446;53.850;10.662;2022-12-18T02:47:46;29.70;;;17.63;;
64932;SDS011;51446;53.850;10.662;2022-12-18T02:50:29;40.53;;;17.75;;
64932;SDS011;51446;53.850;10.662;2022-12-18T02:56:18;31.17;;;18.38;;
64932;SDS011;51446;53.850;10.662;2022-12-18T02:58:56;31.33;;;17.67;;
64932;SDS011;51446;53.850;10.662;2022-12-18T03:01:38;41.45;;;19.17;;
64932;SDS011;51446;53.850;10.662;2022-12-18T03:04:15;35.38;;;19.58;;
64932;SDS011;51446;53.850;10.662;2022-12-18T03:06:47;33.70;;;19.40;;
64932;SDS011;51446;53.850;10.662;2022-12-18T03:09:18;30.67;;;18.23;;
64932;SDS011;51446;53.850;10.662;2022-12-18T03:11:49;37.97;;;18.73;;
64932;SDS011;51446;53.850;10.662;2022-12-18T03:14:40;40.72;;;19.63;;
64932;SDS011;51446;53.850;10.662;2022-12-18T03:17:09;41.25;;;20.73;;
64932;SDS011;51446;53.850;10.662;2022-12-18T03:19:38;34.90;;;19.65;;
64932;SDS011;51446;53.850;10.662;2022-12-18T03:22:05;41.70;;;21.33;;
64932;SDS011;51446;53.850;10.662;2022-12-18T03:24:32;37.63;;;20.33;;
64932;SDS011;51446;53.850;10.662;2022-12-18T03:26:59;43.45;;;20.92;;
64932;SDS011;51446;53.850;10.662;2022-12-18T03:29:30;38.47;;;20.45;;
64932;SDS011;51446;53.850;10.662;2022-12-18T03:32:02;38.55;;;19.85;;
64932;SDS011;51446;53.850;10.662;2022-12-18T03:34:32;33.13;;;19.80;;
64932;SDS011;51446;53.850;10.662;2022-12-18T03:37:00;33.17;;;20.05;;
64932;SDS011;51446;53.850;10.662;2022-12-18T03:39:26;35.88;;;20.77;;
64932;SDS011;51446;53.850;10.662;2022-12-18T03:44:39;39.80;;;22.23;;
64932;SDS011;51446;53.850;10.662;2022-12-18T03:47:06;38.00;;;19.80;;
64932;SDS011;51446;53.850;10.662;2022-12-18T03:49:39;36.05;;;19.75;;
64932;SDS011;51446;53.850;10.662;2022-12-18T03:52:26;36.80;;;19.00;;
64932;SDS011;51446;53.850;10.662;2022-12-18T03:54:53;35.72;;;20.63;;
64932;SDS011;51446;53.850;10.662;2022-12-18T03:57:21;36.80;;;20.33;;
64932;SDS011;51446;53.850;10.662;2022-12-18T03:59:51;39.07;;;21.70;;
64932;SDS011;51446;53.850;10.662;2022-12-18T04:02:21;41.05;;;21.00;;
64932;SDS011;51446;53.850;10.662;2022-12-18T04:04:48;38.38;;;21.45;;
64932;SDS011;51446;53.850;10.662;2022-12-18T04:07:17;36.35;;;19.88;;
64932;SDS011;51446;53.850;10.662;2022-12-18T04:09:43;41.00;;;22.10;;
64932;SDS011;51446;53.850;10.662;2022-12-18T04:12:10;42.27;;;21.43;;
64932;SDS011;51446;53.850;10.662;2022-12-18T04:14:36;38.58;;;21.95;;
64932;SDS011;51446;53.850;10.662;2022-12-18T04:17:01;38.27;;;20.63;;
64932;SDS011;51446;53.850;10.662;2022-12-18T04:19:27;36.10;;;20.23;;
64932;SDS011;51446;53.850;10.662;2022-12-18T04:21:52;44.45;;;22.13;;
64932;SDS011;51446;53.850;10.662;2022-12-18T04:24:18;36.93;;;20.00;;
64932;SDS011;51446;53.850;10.662;2022-12-18T04:26:43;35.73;;;20.40;;
64932;SDS011;51446;53.850;10.662;2022-12-18T04:29:08;35.03;;;19.27;;
64932;SDS011;51446;53.850;10.662;2022-12-18T04:31:33;36.03;;;19.33;;
64932;SDS011;51446;53.850;10.662;2022-12-18T04:33:59;34.30;;;19.10;;
64932;SDS011;51446;53.850;10.662;2022-12-18T04:36:24;41.17;;;20.97;;
64932;SDS011;51446;53.850;10.662;2022-12-18T04:38:49;37.03;;;20.40;;
64932;SDS011;51446;53.850;10.662;2022-12-18T04:41:15;39.40;;;20.73;;
64932;SDS011;51446;53.850;10.662;2022-12-18T04:43:40;35.13;;;19.77;;
64932;SDS011;51446;53.850;10.662;2022-12-18T04:46:06;30.90;;;18.73;;
64932;SDS011;51446;53.850;10.662;2022-12-18T04:48:32;32.70;;;18.07;;
64932;SDS011;51446;53.850;10.662;2022-12-18T04:50:58;35.25;;;18.70;;
64932;SDS011;51446;53.850;10.662;2022-12-18T04:53:23;33.43;;;18.20;;
64932;SDS011;51446;53.850;10.662;2022-12-18T04:55:50;33.42;;;19.63;;
64932;SDS011;51446;53.850;10.662;2022-12-18T04:58:15;33.13;;;18.30;;
64932;SDS011;51446;53.850;10.662;2022-12-18T05:00:40;35.23;;;18.27;;
64932;SDS011;51446;53.850;10.662;2022-12-18T05:03:06;33.87;;;19.30;;
64932;SDS011;51446;53.850;10.662;2022-12-18T05:05:31;29.50;;;18.10;;
64932;SDS011;51446;53.850;10.662;2022-12-18T05:07:56;31.47;;;17.70;;
64932;SDS011;51446;53.850;10.662;2022-12-18T05:10:22;34.47;;;18.33;;
64932;SDS011;51446;53.850;10.662;2022-12-18T05:12:47;31.20;;;18.23;;
64932;SDS011;51446;53.850;10.662;2022-12-18T05:15:29;30.65;;;17.27;;
64932;SDS011;51446;53.850;10.662;2022-12-18T05:17:55;31.75;;;17.95;;
64932;SDS011;51446;53.850;10.662;2022-12-18T05:20:24;34.35;;;18.05;;
64932;SDS011;51446;53.850;10.662;2022-12-18T05:22:50;30.35;;;18.80;;
64932;SDS011;51446;53.850;10.662;2022-12-18T05:25:16;37.60;;;17.97;;
64932;SDS011;51446;53.850;10.662;2022-12-18T05:27:42;41.25;;;18.92;;
64932;SDS011;51446;53.850;10.662;2022-12-18T05:30:07;33.83;;;17.80;;
64932;SDS011;51446;53.850;10.662;2022-12-18T05:32:33;35.75;;;19.00;;
64932;SDS011;51446;53.850;10.662;2022-12-18T05:34:59;35.43;;;18.37;;
64932;SDS011;51446;53.850;10.662;2022-12-18T05:37:24;35.60;;;18.13;;
64932;SDS011;51446;53.850;10.662;2022-12-18T05:39:49;40.27;;;20.47;;
64932;SDS011;51446;53.850;10.662;2022-12-18T05:42:15;32.87;;;18.23;;
64932;SDS011;51446;53.850;10.662;2022-12-18T05:44:40;31.27;;;17.13;;
64932;SDS011;51446;53.850;10.662;2022-12-18T05:47:05;32.53;;;18.13;;
64932;SDS011;51446;53.850;10.662;2022-12-18T05:49:32;33.80;;;19.17;;
64932;SDS011;51446;53.850;10.662;2022-12-18T05:51:57;30.40;;;17.60;;
64932;SDS011;51446;53.850;10.662;2022-12-18T05:54:22;33.03;;;18.27;;
64932;SDS011;51446;53.850;10.662;2022-12-18T05:56:47;34.03;;;18.03;;
64932;SDS011;51446;53.850;10.662;2022-12-18T05:59:13;37.93;;;18.27;;
64932;SDS011;51446;53.850;10.662;2022-12-18T06:01:38;33.70;;;17.80;;
64932;SDS011;51446;53.850;10.662;2022-12-18T06:04:03;35.03;;;18.43;;
64932;SDS011;51446;53.850;10.662;2022-12-18T06:06:29;30.73;;;17.45;;
64932;SDS011;51446;53.850;10.662;2022-12-18T06:08:56;34.80;;;18.13;;
64932;SDS011;51446;53.850;10.662;2022-12-18T06:11:25;34.17;;;17.47;;
64932;SDS011;51446;53.850;10.662;2022-12-18T06:13:51;36.75;;;17.42;;
64932;SDS011;51446;53.850;10.662;2022-12-18T06:16:18;34.10;;;18.73;;
64932;SDS011;51446;53.850;10.662;2022-12-18T06:18:43;34.73;;;19.40;;
64932;SDS011;51446;53.850;10.662;2022-12-18T06:21:09;35.67;;;18.30;;
64932;SDS011;51446;53.850;10.662;2022-12-18T06:23:34;31.37;;;18.00;;
64932;SDS011;51446;53.850;10.662;2022-12-18T06:26:04;32.63;;;18.05;;
64932;SDS011;51446;53.850;10.662;2022-12-18T06:28:30;36.65;;;18.00;;
64932;SDS011;51446;53.850;10.662;2022-12-18T06:30:56;37.67;;;18.80;;
64932;SDS011;51446;53.850;10.662;2022-12-18T06:33:21;39.17;;;18.93;;
64932;SDS011;51446;53.850;10.662;2022-12-18T06:35:46;40.03;;;19.50;;
64932;SDS011;51446;53.850;10.662;2022-12-18T06:38:12;41.97;;;18.83;;
64932;SDS011;51446;53.850;10.662;2022-12-18T06:40:38;39.40;;;18.50;;
64932;SDS011;51446;53.850;10.662;2022-12-18T06:43:04;37.03;;;17.95;;
64932;SDS011;51446;53.850;10.662;2022-12-18T06:45:29;38.58;;;18.10;;
64932;SDS011;51446;53.850;10.662;2022-12-18T06:47:55;37.37;;;18.73;;
64932;SDS011;51446;53.850;10.662;2022-12-18T06:50:20;33.00;;;17.77;;
64932;SDS011;51446;53.850;10.662;2022-12-18T06:52:45;35.97;;;17.30;;
64932;SDS011;51446;53.850;10.662;2022-12-18T06:55:11;35.50;;;17.53;;
64932;SDS011;51446;53.850;10.662;2022-12-18T06:57:36;33.63;;;17.70;;
64932;SDS011;51446;53.850;10.662;2022-12-18T07:00:03;39.28;;;17.83;;
64932;SDS011;51446;53.850;10.662;2022-12-18T07:02:29;35.65;;;18.27;;
64932;SDS011;51446;53.850;10.662;2022-12-18T07:04:55;29.13;;;16.23;;
64932;SDS011;51446;53.850;10.662;2022-12-18T07:07:20;28.90;;;16.60;;
64932;SDS011;51446;53.850;10.662;2022-12-18T07:09:45;35.27;;;16.60;;
64932;SDS011;51446;53.850;10.662;2022-12-18T07:12:10;34.80;;;17.70;;
64932;SDS011;51446;53.850;10.662;2022-12-18T07:14:36;35.00;;;16.87;;
64932;SDS011;51446;53.850;10.662;2022-12-18T07:17:01;34.53;;;16.33;;
64932;SDS011;51446;53.850;10.662;2022-12-18T07:19:26;34.47;;;15.63;;
64932;SDS011;51446;53.850;10.662;2022-12-18T07:21:51;35.03;;;17.97;;
64932;SDS011;51446;53.850;10.662;2022-12-18T07:24:17;35.90;;;17.17;;
64932;SDS011;51446;53.850;10.662;2022-12-18T07:26:42;36.57;;;16.53;;
64932;SDS011;51446;53.850;10.662;2022-12-18T07:29:10;42.95;;;17.60;;
64932;SDS011;51446;53.850;10.662;2022-12-18T07:31:36;38.77;;;18.67;;
64932;SDS011;51446;53.850;10.662;2022-12-18T07:34:01;34.60;;;17.43;;
64932;SDS011;51446;53.850;10.662;2022-12-18T07:36:26;33.77;;;16.07;;
64932;SDS011;51446;53.850;10.662;2022-12-18T07:38:51;44.33;;;17.20;;
64932;SDS011;51446;53.850;10.662;2022-12-18T07:41:18;40.47;;;18.15;;
64932;SDS011;51446;53.850;10.662;2022-12-18T07:43:44;31.13;;;16.43;;
64932;SDS011;51446;53.850;10.662;2022-12-18T07:46:10;36.90;;;17.08;;
64932;SDS011;51446;53.850;10.662;2022-12-18T07:48:36;28.47;;;15.07;;
64932;SDS011;51446;53.850;10.662;2022-12-18T07:51:02;34.17;;;16.52;;
64932;SDS011;51446;53.850;10.662;2022-12-18T07:53:29;32.23;;;15.50;;
64932;SDS011;51446;53.850;10.662;2022-12-18T07:55:58;32.42;;;15.55;;
64932;SDS011;51446;53.850;10.662;2022-12-18T07:58:25;30.90;;;15.40;;
64932;SDS011;51446;53.850;10.662;2022-12-18T08:00:50;35.30;;;16.37;;
64932;SDS011;51446;53.850;10.662;2022-12-18T08:03:17;34.75;;;16.10;;
64932;SDS011;51446;53.850;10.662;2022-12-18T08:05:43;30.88;;;15.18;;
64932;SDS011;51446;53.850;10.662;2022-12-18T08:08:08;36.70;;;16.43;;
64932;SDS011;51446;53.850;10.662;2022-12-18T08:10:33;36.37;;;16.03;;
64932;SDS011;51446;53.850;10.662;2022-12-18T08:12:59;33.43;;;16.13;;
64932;SDS011;51446;53.850;10.662;2022-12-18T08:15:24;30.17;;;13.90;;
64932;SDS011;51446;53.850;10.662;2022-12-18T08:17:49;27.33;;;14.00;;
64932;SDS011;51446;53.850;10.662;2022-12-18T08:20:14;24.47;;;11.70;;
64932;SDS011;51446;53.850;10.662;2022-12-18T08:22:41;26.43;;;12.57;;
64932;SDS011;51446;53.850;10.662;2022-12-18T08:25:07;23.05;;;12.38;;
64932;SDS011;51446;53.850;10.662;2022-12-18T08:27:33;22.73;;;12.07;;
64932;SDS011;51446;53.850;10.662;2022-12-18T08:29:58;24.30;;;12.73;;
64932;SDS011;51446;53.850;10.662;2022-12-18T08:32:24;25.47;;;12.27;;
64932;SDS011;51446;53.850;10.662;2022-12-18T08:34:50;23.13;;;12.40;;
64932;SDS011;51446;53.850;10.662;2022-12-18T08:37:15;25.45;;;12.80;;
64932;SDS011;51446;53.850;10.662;2022-12-18T08:39:40;26.00;;;13.35;;
64932;SDS011;51446;53.850;10.662;2022-12-18T08:42:05;27.38;;;13.40;;
64932;SDS011;51446;53.850;10.662;2022-12-18T08:44:49;26.75;;;13.80;;
64932;SDS011;51446;53.850;10.662;2022-12-18T08:47:14;30.10;;;14.40;;
64932;SDS011;51446;53.850;10.662;2022-12-18T08:49:40;27.93;;;13.50;;
64932;SDS011;51446;53.850;10.662;2022-12-18T08:52:05;26.73;;;14.23;;
64932;SDS011;51446;53.850;10.662;2022-12-18T08:54:30;24.95;;;13.27;;
64932;SDS011;51446;53.850;10.662;2022-12-18T08:56:56;22.52;;;12.52;;
64932;SDS011;51446;53.850;10.662;2022-12-18T08:59:21;32.17;;;14.88;;
64932;SDS011;51446;53.850;10.662;2022-12-18T09:01:48;27.50;;;13.70;;
64932;SDS011;51446;53.850;10.662;2022-12-18T09:04:13;29.97;;;14.43;;
64932;SDS011;51446;53.850;10.662;2022-12-18T09:06:39;28.23;;;13.68;;
64932;SDS011;51446;53.850;10.662;2022-12-18T09:09:04;28.60;;;13.23;;
64932;SDS011;51446;53.850;10.662;2022-12-18T09:11:30;29.03;;;13.47;;
64932;SDS011;51446;53.850;10.662;2022-12-18T09:13:56;28.67;;;13.63;;
64932;SDS011;51446;53.850;10.662;2022-12-18T09:16:22;31.38;;;13.70;;
64932;SDS011;51446;53.850;10.662;2022-12-18T09:18:48;30.25;;;14.50;;
64932;SDS011;51446;53.850;10.662;2022-12-18T09:21:18;35.70;;;14.43;;
64932;SDS011;51446;53.850;10.662;2022-12-18T09:23:51;29.95;;;14.68;;
64932;SDS011;51446;53.850;10.662;2022-12-18T09:26:18;25.67;;;13.03;;
64932;SDS011;51446;53.850;10.662;2022-12-18T09:28:43;30.02;;;13.60;;
64932;SDS011;51446;53.850;10.662;2022-12-18T09:31:10;26.67;;;13.07;;
64932;SDS011;51446;53.850;10.662;2022-12-18T09:33:37;24.65;;;13.20;;
64932;SDS011;51446;53.850;10.662;2022-12-18T09:36:03;26.90;;;12.23;;
64932;SDS011;51446;53.850;10.662;2022-12-18T09:38:29;22.02;;;12.05;;
64932;SDS011;51446;53.850;10.662;2022-12-18T09:43:53;26.17;;;13.10;;
64932;SDS011;51446;53.850;10.662;2022-12-18T09:46:25;28.27;;;12.98;;
64932;SDS011;51446;53.850;10.662;2022-12-18T09:48:54;28.13;;;12.90;;
64932;SDS011;51446;53.850;10.662;2022-12-18T09:51:28;27.73;;;12.13;;
64932;SDS011;51446;53.850;10.662;2022-12-18T09:54:07;27.13;;;11.65;;
64932;SDS011;51446;53.850;10.662;2022-12-18T09:56:40;25.73;;;11.43;;
64932;SDS011;51446;53.850;10.662;2022-12-18T09:59:14;25.83;;;12.38;;
64932;SDS011;51446;53.850;10.662;2022-12-18T10:01:46;26.05;;;12.30;;
64932;SDS011;51446;53.850;10.662;2022-12-18T10:04:11;28.47;;;12.23;;
64932;SDS011;51446;53.850;10.662;2022-12-18T10:06:58;30.17;;;13.40;;
64932;SDS011;51446;53.850;10.662;2022-12-18T10:09:55;23.83;;;12.38;;
64932;SDS011;51446;53.850;10.662;2022-12-18T10:12:38;23.27;;;12.73;;
64932;SDS011;51446;53.850;10.662;2022-12-18T10:16:17;25.37;;;12.20;;
64932;SDS011;51446;53.850;10.662;2022-12-18T10:20:49;26.93;;;12.30;;
64932;SDS011;51446;53.850;10.662;2022-12-18T10:23:25;23.15;;;12.70;;
64932;SDS011;51446;53.850;10.662;2022-12-18T10:26:15;28.85;;;12.85;;
64932;SDS011;51446;53.850;10.662;2022-12-18T10:28:41;24.20;;;12.80;;
64932;SDS011;51446;53.850;10.662;2022-12-18T10:31:07;28.42;;;12.60;;
64932;SDS011;51446;53.850;10.662;2022-12-18T10:33:41;25.77;;;12.73;;
64932;SDS011;51446;53.850;10.662;2022-12-18T10:36:07;28.17;;;13.30;;
64932;SDS011;51446;53.850;10.662;2022-12-18T10:38:32;24.60;;;12.73;;
64932;SDS011;51446;53.850;10.662;2022-12-18T10:41:02;25.53;;;12.77;;
64932;SDS011;51446;53.850;10.662;2022-12-18T10:43:36;23.52;;;11.77;;
64932;SDS011;51446;53.850;10.662;2022-12-18T10:48:33;22.48;;;12.05;;
64932;SDS011;51446;53.850;10.662;2022-12-18T10:51:00;22.17;;;12.00;;
64932;SDS011;51446;53.850;10.662;2022-12-18T10:53:28;23.80;;;12.10;;
64932;SDS011;51446;53.850;10.662;2022-12-18T10:55:56;25.20;;;12.07;;
64932;SDS011;51446;53.850;10.662;2022-12-18T10:58:28;23.65;;;12.60;;
64932;SDS011;51446;53.850;10.662;2022-12-18T11:01:02;25.50;;;11.82;;
64932;SDS011;51446;53.850;10.662;2022-12-18T11:03:35;22.37;;;11.07;;
64932;SDS011;51446;53.850;10.662;2022-12-18T11:06:12;26.88;;;13.18;;
64932;SDS011;51446;53.850;10.662;2022-12-18T11:08:40;24.85;;;12.68;;
64932;SDS011;51446;53.850;10.662;2022-12-18T11:11:14;25.95;;;12.57;;
64932;SDS011;51446;53.850;10.662;2022-12-18T11:13:49;26.48;;;12.10;;
64932;SDS011;51446;53.850;10.662;2022-12-18T11:16:23;29.43;;;12.60;;
64932;SDS011;51446;53.850;10.662;2022-12-18T11:18:49;27.58;;;13.00;;
64932;SDS011;51446;53.850;10.662;2022-12-18T11:21:14;26.83;;;13.13;;
64932;SDS011;51446;53.850;10.662;2022-12-18T11:23:46;23.43;;;12.07;;
64932;SDS011;51446;53.850;10.662;2022-12-18T11:26:15;24.50;;;11.90;;
64932;SDS011;51446;53.850;10.662;2022-12-18T11:28:45;28.75;;;12.75;;
64932;SDS011;51446;53.850;10.662;2022-12-18T11:33:42;26.33;;;13.32;;
64932;SDS011;51446;53.850;10.662;2022-12-18T11:36:11;25.23;;;12.10;;
64932;SDS011;51446;53.850;10.662;2022-12-18T11:38:39;23.25;;;11.73;;
64932;SDS011;51446;53.850;10.662;2022-12-18T11:44:27;25.83;;;13.07;;
64932;SDS011;51446;53.850;10.662;2022-12-18T11:47:00;25.67;;;12.07;;
64932;SDS011;51446;53.850;10.662;2022-12-18T11:49:32;23.42;;;12.43;;
64932;SDS011;51446;53.850;10.662;2022-12-18T11:52:04;25.08;;;13.25;;
64932;SDS011;51446;53.850;10.662;2022-12-18T11:54:39;30.10;;;12.83;;
64932;SDS011;51446;53.850;10.662;2022-12-18T11:57:29;24.60;;;13.07;;
64932;SDS011;51446;53.850;10.662;2022-12-18T12:00:04;25.63;;;12.27;;
64932;SDS011;51446;53.850;10.662;2022-12-18T12:11:35;22.23;;;11.93;;
64932;SDS011;51446;53.850;10.662;2022-12-18T12:14:32;27.27;;;12.57;;
64932;SDS011;51446;53.850;10.662;2022-12-18T12:20:01;23.98;;;12.02;;
64932;SDS011;51446;53.850;10.662;2022-12-18T12:25:08;28.25;;;12.98;;
64932;SDS011;51446;53.850;10.662;2022-12-18T12:30:39;28.45;;;13.07;;
64932;SDS011;51446;53.850;10.662;2022-12-18T12:33:28;29.55;;;13.80;;
64932;SDS011;51446;53.850;10.662;2022-12-18T12:36:10;25.73;;;13.13;;
64932;SDS011;51446;53.850;10.662;2022-12-18T12:39:13;28.48;;;12.80;;
64932;SDS011;51446;53.850;10.662;2022-12-18T12:41:46;25.10;;;12.67;;
64932;SDS011;51446;53.850;10.662;2022-12-18T12:44:32;28.63;;;13.95;;
64932;SDS011;51446;53.850;10.662;2022-12-18T12:47:45;28.75;;;13.27;;
64932;SDS011;51446;53.850;10.662;2022-12-18T12:49:53;30.27;;;13.95;;
64932;SDS011;51446;53.850;10.662;2022-12-18T12:54:56;28.73;;;13.70;;
64932;SDS011;51446;53.850;10.662;2022-12-18T12:57:24;27.35;;;13.60;;
64932;SDS011;51446;53.850;10.662;2022-12-18T13:00:04;32.90;;;13.45;;
64932;SDS011;51446;53.850;10.662;2022-12-18T13:03:02;27.75;;;13.32;;
64932;SDS011;51446;53.850;10.662;2022-12-18T13:05:40;28.27;;;14.18;;
64932;SDS011;51446;53.850;10.662;2022-12-18T13:08:29;28.63;;;13.37;;
64932;SDS011;51446;53.850;10.662;2022-12-18T13:10:57;31.25;;;13.65;;
64932;SDS011;51446;53.850;10.662;2022-12-18T13:13:52;28.33;;;12.48;;
64932;SDS011;51446;53.850;10.662;2022-12-18T13:16:20;29.60;;;12.40;;
64932;SDS011;51446;53.850;10.662;2022-12-18T13:18:50;33.28;;;14.70;;
64932;SDS011;51446;53.850;10.662;2022-12-18T13:21:30;30.57;;;14.73;;
64932;SDS011;51446;53.850;10.662;2022-12-18T13:23:57;31.23;;;13.50;;
64932;SDS011;51446;53.850;10.662;2022-12-18T13:26:40;29.52;;;13.43;;
64932;SDS011;51446;53.850;10.662;2022-12-18T13:29:05;28.30;;;12.57;;
64932;SDS011;51446;53.850;10.662;2022-12-18T13:34:21;29.98;;;13.80;;
64932;SDS011;51446;53.850;10.662;2022-12-18T13:36:51;32.15;;;13.90;;
64932;SDS011;51446;53.850;10.662;2022-12-18T13:41:46;30.70;;;14.23;;
64932;SDS011;51446;53.850;10.662;2022-12-18T13:44:32;30.08;;;13.82;;
64932;SDS011;51446;53.850;10.662;2022-12-18T13:47:05;30.95;;;14.35;;
64932;SDS011;51446;53.850;10.662;2022-12-18T13:49:51;33.22;;;13.32;;
64932;SDS011;51446;53.850;10.662;2022-12-18T13:52:21;31.10;;;14.55;;
64932;SDS011;51446;53.850;10.662;2022-12-18T13:54:52;30.07;;;13.07;;
64932;SDS011;51446;53.850;10.662;2022-12-18T13:57:36;30.40;;;14.02;;
64932;SDS011;51446;53.850;10.662;2022-12-18T14:02:51;32.00;;;13.65;;
64932;SDS011;51446;53.850;10.662;2022-12-18T14:05:35;33.00;;;14.33;;
64932;SDS011;51446;53.850;10.662;2022-12-18T14:08:05;31.27;;;13.70;;
64932;SDS011;51446;53.850;10.662;2022-12-18T14:10:40;32.13;;;13.70;;
64932;SDS011;51446;53.850;10.662;2022-12-18T14:13:06;31.27;;;13.52;;
64932;SDS011;51446;53.850;10.662;2022-12-18T14:15:41;35.97;;;15.98;;
64932;SDS011;51446;53.850;10.662;2022-12-18T14:20:44;32.38;;;13.20;;
64932;SDS011;51446;53.850;10.662;2022-12-18T14:23:26;28.80;;;13.57;;
64932;SDS011;51446;53.850;10.662;2022-12-18T14:29:20;31.00;;;13.77;;
64932;SDS011;51446;53.850;10.662;2022-12-18T14:32:03;33.28;;;13.40;;
64932;SDS011;51446;53.850;10.662;2022-12-18T14:34:42;33.55;;;14.13;;
64932;SDS011;51446;53.850;10.662;2022-12-18T14:37:11;33.95;;;13.98;;
64932;SDS011;51446;53.850;10.662;2022-12-18T14:39:38;38.05;;;15.57;;
64932;SDS011;51446;53.850;10.662;2022-12-18T14:42:04;38.87;;;15.10;;
64932;SDS011;51446;53.850;10.662;2022-12-18T14:44:29;33.78;;;14.10;;
64932;SDS011;51446;53.850;10.662;2022-12-18T14:46:55;37.67;;;14.53;;
64932;SDS011;51446;53.850;10.662;2022-12-18T14:49:33;37.53;;;15.05;;
64932;SDS011;51446;53.850;10.662;2022-12-18T14:51:59;31.63;;;13.70;;
64932;SDS011;51446;53.850;10.662;2022-12-18T14:54:45;32.90;;;13.73;;
64932;SDS011;51446;53.850;10.662;2022-12-18T14:57:18;35.75;;;15.13;;
64932;SDS011;51446;53.850;10.662;2022-12-18T14:59:47;36.45;;;14.35;;
64932;SDS011;51446;53.850;10.662;2022-12-18T15:04:40;35.47;;;14.43;;
64932;SDS011;51446;53.850;10.662;2022-12-18T15:07:20;34.27;;;15.53;;
64932;SDS011;51446;53.850;10.662;2022-12-18T15:10:02;28.65;;;13.85;;
64932;SDS011;51446;53.850;10.662;2022-12-18T15:12:47;34.92;;;15.38;;
64932;SDS011;51446;53.850;10.662;2022-12-18T15:17:58;32.72;;;14.23;;
64932;SDS011;51446;53.850;10.662;2022-12-18T15:20:24;35.67;;;15.43;;
64932;SDS011;51446;53.850;10.662;2022-12-18T15:22:50;36.15;;;14.40;;
64932;SDS011;51446;53.850;10.662;2022-12-18T15:25:31;36.53;;;14.97;;
64932;SDS011;51446;53.850;10.662;2022-12-18T15:27:59;41.45;;;15.50;;
64932;SDS011;51446;53.850;10.662;2022-12-18T15:30:24;32.07;;;14.43;;
64932;SDS011;51446;53.850;10.662;2022-12-18T15:32:51;33.20;;;15.50;;
64932;SDS011;51446;53.850;10.662;2022-12-18T15:35:24;31.17;;;15.52;;